Time;durP1;ratioP1;P1;durP2;ratioP2;P2;SDS_P1;SDS_P2;PMS_P1;PMS_P2;Temp;Humidity;BMP_temperature;BMP_pressure;BME280_temperature;BME280_humidity;BME280_pressure;Samples;Min_cycle;Max_cycle;Signal;HPM_P1;HPM_P2
2024/01/10 00:01:02;;;;;;;;;;;;;;;-0.47;100.00;100045.00;5134121;27;19915;-79
2024/01/10 00:03:27;;;;;;;;;;;;;;;-0.34;100.00;100048.59;5133689;27;19934;-79
2024/01/10 00:05:53;;;;;;;;;;;;;;;-0.31;100.00;100053.38;5123528;27;19923;-78
2024/01/10 00:08:18;;;;;;;;;;;;;;;-0.27;100.00;100054.28;5129784;27;19922;-79
2024/01/10 00:10:43;;;;;;;;;;;;;;;-0.28;100.00;100057.34;5133822;27;19919;-78
2024/01/10 00:13:09;;;;;;;;;;;;;;;-0.29;100.00;100056.53;5130261;27;19912;-78
2024/01/10 00:15:34;;;;;;;;;;;;;;;-0.14;100.00;100047.81;5124075;27;19911;-79
2024/01/10 00:17:59;;;;;;;;;;;;;;;-0.11;100.00;100055.28;5133516;27;19918;-79
2024/01/10 00:20:25;;;;;;;;;;;;;;;-0.05;100.00;100053.16;5134014;27;20387;-78
2024/01/10 00:22:50;;;;;;;;;;;;;;;-0.06;100.00;100059.75;5134628;27;20433;-78
2024/01/10 00:25:15;;;;;;;;;;;;;;;-0.05;100.00;100064.81;5133608;27;19911;-78
2024/01/10 00:27:41;;;;;;;;;;;;;;;-0.05;100.00;100066.72;5133677;27;19919;-79
2024/01/10 00:30:06;;;;;;;;;;;;;;;-0.06;100.00;100065.94;5133933;27;20002;-79
2024/01/10 00:32:31;;;;;;;;;;;;;;;-0.08;100.00;100073.66;5135009;27;20424;-78
2024/01/10 00:34:57;;;;;;;;;;;;;;;-0.10;100.00;100070.44;5134651;27;19915;-78
2024/01/10 00:37:22;;;;;;;;;;;;;;;-0.12;100.00;100069.97;5134504;27;19934;-78
2024/01/10 00:39:47;;;;;;;;;;;;;;;-0.16;100.00;100070.97;5133562;27;19915;-79
2024/01/10 00:42:13;;;;;;;;;;;;;;;-0.25;100.00;100078.41;5133166;27;20281;-79
2024/01/10 00:44:39;;;;;;;;;;;;;;;-0.21;100.00;100069.28;5133397;27;19922;-79
2024/01/10 00:47:04;;;;;;;;;;;;;;;-0.19;100.00;100068.94;5132402;27;19923;-79
2024/01/10 00:49:30;;;;;;;;;;;;;;;-0.12;100.00;100069.97;5134451;27;19911;-79
2024/01/10 00:51:55;;;;;;;;;;;;;;;-0.23;100.00;100074.22;5132922;27;19926;-79
2024/01/10 00:54:20;;;;;;;;;;;;;;;-0.23;100.00;100084.28;5133527;27;19926;-78
2024/01/10 00:56:46;;;;;;;;;;;;;;;-0.28;100.00;100085.28;5133349;27;19918;-79
2024/01/10 00:59:11;;;;;;;;;;;;;;;-0.46;100.00;100078.38;5134223;27;19911;-78
2024/01/10 01:01:36;;;;;;;;;;;;;;;-0.45;100.00;100075.34;5134025;27;20014;-78
2024/01/10 01:04:02;;;;;;;;;;;;;;;-0.50;100.00;100077.47;5132689;27;19919;-79
2024/01/10 01:06:27;;;;;;;;;;;;;;;-0.44;100.00;100076.16;5133114;27;19937;-78
2024/01/10 01:08:52;;;;;;;;;;;;;;;-0.48;100.00;100076.00;5132734;27;19949;-78
2024/01/10 01:11:18;;;;;;;;;;;;;;;-0.36;100.00;100072.56;5132684;27;20406;-78
2024/01/10 01:13:43;;;;;;;;;;;;;;;-0.52;100.00;100074.28;5134146;27;20345;-77
2024/01/10 01:16:09;;;;;;;;;;;;;;;-0.54;100.00;100076.50;5132311;27;20459;-78
2024/01/10 01:18:35;;;;;;;;;;;;;;;-0.56;100.00;100073.34;5132146;27;19912;-77
2024/01/10 01:21:00;;;;;;;;;;;;;;;-0.62;100.00;100075.47;5133527;27;19915;-78
2024/01/10 01:23:25;;;;;;;;;;;;;;;-0.61;100.00;100059.97;5132470;27;20354;-79
2024/01/10 01:25:50;;;;;;;;;;;;;;;-0.55;100.00;100064.88;5133437;27;19969;-77
2024/01/10 01:28:16;;;;;;;;;;;;;;;-0.49;100.00;100068.19;5132310;27;19996;-77
2024/01/10 01:30:41;;;;;;;;;;;;;;;-0.61;100.00;100071.63;5133203;27;20068;-78
2024/01/10 01:33:06;;;;;;;;;;;;;;;-0.57;100.00;100071.75;5133438;27;20384;-78
2024/01/10 01:35:32;;;;;;;;;;;;;;;-0.58;100.00;100064.72;5132881;27;19911;-78
2024/01/10 01:37:57;;;;;;;;;;;;;;;-0.68;100.00;100067.84;5132083;27;19922;-78
2024/01/10 01:40:22;;;;;;;;;;;;;;;-0.58;100.00;100062.81;5132285;27;19911;-79
2024/01/10 01:42:48;;;;;;;;;;;;;;;-0.56;100.00;100059.78;5131890;27;20349;-78
2024/01/10 01:45:13;;;;;;;;;;;;;;;-0.67;100.00;100067.50;5132248;27;19953;-78
2024/01/10 01:47:39;;;;;;;;;;;;;;;-0.69;99.75;100066.22;5131971;27;19919;-78
2024/01/10 01:50:05;;;;;;;;;;;;;;;-0.73;99.21;100060.69;5132178;27;20304;-77
2024/01/10 01:52:31;;;;;;;;;;;;;;;-0.68;100.00;100062.41;5132491;27;19912;-78
2024/01/10 01:54:56;;;;;;;;;;;;;;;-0.64;100.00;100063.31;5118916;27;20013;-79
2024/01/10 01:57:22;;;;;;;;;;;;;;;-0.59;100.00;100058.50;5131761;27;19964;-78
2024/01/10 01:59:47;;;;;;;;;;;;;;;-0.65;100.00;100057.09;5131547;27;20404;-79
2024/01/10 02:02:14;;;;;;;;;;;;;;;-0.63;100.00;100063.00;5132157;27;20380;-80
2024/01/10 02:04:40;;;;;;;;;;;;;;;-0.66;100.00;100060.16;5132200;27;19907;-76
2024/01/10 02:07:05;;;;;;;;;;;;;;;-0.63;100.00;100052.16;5132805;27;19915;-79
2024/01/10 02:09:30;;;;;;;;;;;;;;;-0.64;100.00;100055.97;5132179;27;19907;-79
2024/01/10 02:11:55;;;;;;;;;;;;;;;-0.61;100.00;100049.91;5124823;27;19911;-79
2024/01/10 02:14:21;;;;;;;;;;;;;;;-0.55;100.00;100047.81;5124857;27;19919;-78
2024/01/10 02:16:46;;;;;;;;;;;;;;;-0.56;100.00;100052.44;5118492;27;19919;-76
2024/01/10 02:19:19;;;;;;;;;;;;;;;-0.58;100.00;100048.44;5131875;27;20006;-77
2024/01/10 02:21:44;;;;;;;;;;;;;;;-0.59;100.00;100050.34;5111165;28;19912;-77
2024/01/10 02:24:09;;;;;;;;;;;;;;;-0.52;100.00;100049.84;5124758;27;19911;-77
2024/01/10 02:26:35;;;;;;;;;;;;;;;-0.46;100.00;100048.53;5131309;27;20477;-77
2024/01/10 02:29:00;;;;;;;;;;;;;;;-0.42;100.00;100046.72;5133181;27;19918;-77
2024/01/10 02:31:27;;;;;;;;;;;;;;;-0.39;100.00;100042.56;5132485;27;19915;-76
2024/01/10 02:33:52;;;;;;;;;;;;;;;-0.41;100.00;100043.69;5131265;27;19915;-76
2024/01/10 02:36:18;;;;;;;;;;;;;;;-0.38;100.00;100042.25;5130994;27;19998;-78
2024/01/10 02:38:43;;;;;;;;;;;;;;;-0.36;100.00;100037.25;5132638;27;19911;-77
2024/01/10 02:41:08;;;;;;;;;;;;;;;-0.35;100.00;100038.84;5131739;27;19918;-78
2024/01/10 02:43:33;;;;;;;;;;;;;;;-0.35;100.00;100047.00;5131575;27;20401;-76
2024/01/10 02:45:59;;;;;;;;;;;;;;;-0.43;100.00;100047.88;5131547;27;19907;-78
2024/01/10 02:48:25;;;;;;;;;;;;;;;-0.38;100.00;100042.25;5131946;27;19907;-77
2024/01/10 02:50:50;;;;;;;;;;;;;;;-0.29;100.00;100044.88;5111305;27;19924;-77
2024/01/10 02:53:15;;;;;;;;;;;;;;;-0.37;100.00;100037.63;5126194;28;19919;-78
2024/01/10 02:55:41;;;;;;;;;;;;;;;-0.36;100.00;100042.69;5130981;27;20301;-77
2024/01/10 02:58:07;;;;;;;;;;;;;;;-0.33;100.00;100044.75;5131573;27;19922;-77
2024/01/10 03:00:32;;;;;;;;;;;;;;;-0.38;100.00;100044.16;5131726;27;19913;-77
2024/01/10 03:02:57;;;;;;;;;;;;;;;-0.42;100.00;100049.44;5136887;27;19907;-77
2024/01/10 03:05:23;;;;;;;;;;;;;;;-0.46;100.00;100048.53;5136042;27;19908;-77
2024/01/10 03:07:48;;;;;;;;;;;;;;;-0.51;100.00;100044.09;5138300;27;20376;-77
2024/01/10 03:10:13;;;;;;;;;;;;;;;-0.52;100.00;100042.50;5100204;28;19922;-78
2024/01/10 03:12:40;;;;;;;;;;;;;;;-0.48;100.00;100048.03;5130901;27;19918;-77
2024/01/10 03:15:06;;;;;;;;;;;;;;;-0.49;100.00;100046.47;5130745;27;19938;-77
2024/01/10 03:17:33;;;;;;;;;;;;;;;-0.36;100.00;100050.06;5130802;27;20370;-77
2024/01/10 03:19:59;;;;;;;;;;;;;;;-0.45;100.00;100059.06;5134621;27;19915;-78
2024/01/10 03:22:24;;;;;;;;;;;;;;;-0.48;100.00;100054.28;5134984;27;19922;-78
2024/01/10 03:24:49;;;;;;;;;;;;;;;-0.47;100.00;100046.94;5128801;27;19912;-78
2024/01/10 03:27:15;;;;;;;;;;;;;;;-0.39;100.00;100042.56;5127169;27;19935;-76
2024/01/10 03:29:40;;;;;;;;;;;;;;;-0.40;100.00;100049.91;5134343;27;19915;-78
2024/01/10 03:32:06;;;;;;;;;;;;;;;-0.43;100.00;100050.59;5134415;27;19911;-77
2024/01/10 03:34:31;;;;;;;;;;;;;;;-0.39;100.00;100034.44;5134154;27;20372;-78
2024/01/10 03:36:57;;;;;;;;;;;;;;;-0.46;100.00;100029.53;5121914;27;19968;-78
2024/01/10 03:39:22;;;;;;;;;;;;;;;-0.43;100.00;100042.44;5133574;27;20573;-78
2024/01/10 03:41:48;;;;;;;;;;;;;;;-0.41;100.00;100042.88;5134528;27;19971;-77
2024/01/10 03:44:14;;;;;;;;;;;;;;;-0.35;100.00;100043.50;5135400;27;19968;-78
2024/01/10 03:46:39;;;;;;;;;;;;;;;-0.41;100.00;100045.59;5134355;27;19911;-77
2024/01/10 03:49:04;;;;;;;;;;;;;;;-0.36;100.00;100047.34;5133815;27;20269;-77
2024/01/10 03:51:30;;;;;;;;;;;;;;;-0.39;100.00;100048.78;5135434;27;19975;-76
2024/01/10 03:53:55;;;;;;;;;;;;;;;-0.48;100.00;100048.03;5133839;27;19911;-77
2024/01/10 03:56:20;;;;;;;;;;;;;;;-0.44;100.00;100046.28;5135495;27;19911;-78
2024/01/10 03:58:48;;;;;;;;;;;;;;;-0.46;100.00;100043.09;5120263;27;19912;-78
2024/01/10 04:01:14;;;;;;;;;;;;;;;-0.47;100.00;100046.94;5133829;27;19964;-78
2024/01/10 04:03:42;;;;;;;;;;;;;;;-0.51;100.00;100046.00;5135014;27;19911;-77
2024/01/10 04:06:07;;;;;;;;;;;;;;;-0.54;100.00;100041.22;5134062;27;19912;-77
2024/01/10 04:08:32;;;;;;;;;;;;;;;-0.55;100.00;100045.09;5133999;27;19918;-77
2024/01/10 04:10:58;;;;;;;;;;;;;;;-0.55;100.00;100050.50;5133971;27;19919;-77
2024/01/10 04:13:23;;;;;;;;;;;;;;;-0.55;100.00;100045.09;5133242;27;20418;-76
2024/01/10 04:15:49;;;;;;;;;;;;;;;-0.53;100.00;100051.75;5134676;27;19915;-77
2024/01/10 04:18:14;;;;;;;;;;;;;;;-0.57;100.00;100052.75;5133202;27;19934;-77
2024/01/10 04:20:40;;;;;;;;;;;;;;;-0.62;100.00;100056.47;5133732;27;20079;-77
2024/01/10 04:23:05;;;;;;;;;;;;;;;-0.60;100.00;100069.69;5133283;27;19955;-77
2024/01/10 04:25:30;;;;;;;;;;;;;;;-0.53;100.00;100061.81;5133575;27;19911;-79
2024/01/10 04:27:57;;;;;;;;;;;;;;;-0.53;100.00;100069.97;5133562;27;19926;-78
2024/01/10 04:30:22;;;;;;;;;;;;;;;-0.52;100.00;100072.34;5133114;27;19911;-76
2024/01/10 04:32:47;;;;;;;;;;;;;;;-0.53;100.00;100075.38;5133240;27;19915;-76
2024/01/10 04:35:13;;;;;;;;;;;;;;;-0.53;100.00;100073.47;5133636;27;19911;-78
2024/01/10 04:37:38;;;;;;;;;;;;;;;-0.56;100.00;100084.19;5134788;27;20387;-76
2024/01/10 04:40:04;;;;;;;;;;;;;;;-0.51;100.00;100081.28;5133352;27;19920;-78
2024/01/10 04:42:30;;;;;;;;;;;;;;;-0.46;100.00;100086.53;5115897;27;19918;-78
2024/01/10 04:44:55;;;;;;;;;;;;;;;-0.47;100.00;100084.94;5123950;27;19918;-78
2024/01/10 04:47:20;;;;;;;;;;;;;;;-0.35;100.00;100085.00;5132477;27;19911;-76
2024/01/10 04:49:46;;;;;;;;;;;;;;;-0.32;100.00;100094.44;5123630;27;20316;-77
2024/01/10 04:52:12;;;;;;;;;;;;;;;-0.31;100.00;100096.81;5130118;27;20377;-78
2024/01/10 04:54:37;;;;;;;;;;;;;;;-0.27;100.00;100097.75;5132971;27;19919;-78
2024/01/10 04:57:03;;;;;;;;;;;;;;;-0.23;100.00;100092.44;5132224;27;20285;-78
2024/01/10 04:59:28;;;;;;;;;;;;;;;-0.23;100.00;100098.66;5121942;27;19932;-77
2024/01/10 05:01:53;;;;;;;;;;;;;;;-0.27;100.00;100086.88;5129723;27;19911;-77
2024/01/10 05:04:19;;;;;;;;;;;;;;;-0.33;100.00;100090.91;5121951;27;19908;-76
2024/01/10 05:06:44;;;;;;;;;;;;;;;-0.34;100.00;100085.81;5116788;27;19950;-76
2024/01/10 05:09:09;;;;;;;;;;;;;;;-0.34;100.00;100094.75;5132841;27;19907;-77
2024/01/10 05:11:36;;;;;;;;;;;;;;;-0.36;100.00;100102.41;5119563;27;19911;-75
2024/01/10 05:14:02;;;;;;;;;;;;;;;-0.35;100.00;100104.03;5133754;27;20291;-76
2024/01/10 05:16:28;;;;;;;;;;;;;;;-0.36;100.00;100105.13;5118007;27;20412;-77
2024/01/10 05:18:53;;;;;;;;;;;;;;;-0.36;100.00;100110.56;5133679;27;19942;-77
2024/01/10 05:21:18;;;;;;;;;;;;;;;-0.35;100.00;100123.03;5131963;27;19920;-77
2024/01/10 05:23:44;;;;;;;;;;;;;;;-0.36;100.00;100115.22;5132160;27;19911;-77
2024/01/10 05:26:09;;;;;;;;;;;;;;;-0.41;100.00;100118.91;5130911;27;20003;-77
2024/01/10 05:28:34;;;;;;;;;;;;;;;-0.41;100.00;100125.13;5111994;28;19911;-76
2024/01/10 05:31:00;;;;;;;;;;;;;;;-0.60;100.00;100122.03;5127508;27;20281;-80
2024/01/10 05:33:25;;;;;;;;;;;;;;;-0.61;100.00;100119.69;5132499;27;20376;-78
2024/01/10 05:35:50;;;;;;;;;;;;;;;-0.61;100.00;100130.53;5131988;27;19990;-79
2024/01/10 05:38:16;;;;;;;;;;;;;;;-0.71;100.00;100125.44;5132271;27;19918;-77
2024/01/10 05:40:41;;;;;;;;;;;;;;;-0.68;100.00;100130.25;5132682;27;19911;-76
2024/01/10 05:43:12;;;;;;;;;;;;;;;-0.74;100.00;100126.13;5131932;27;19957;-76
2024/01/10 05:45:38;;;;;;;;;;;;;;;-0.81;100.00;100126.63;5131800;27;20775;-77
2024/01/10 05:48:03;;;;;;;;;;;;;;;-0.95;100.00;100124.13;5132315;27;19919;-77
2024/01/10 05:50:29;;;;;;;;;;;;;;;-1.01;100.00;100127.34;5133162;27;20552;-77
2024/01/10 05:52:55;;;;;;;;;;;;;;;-1.10;100.00;100132.81;5132144;27;19915;-77
2024/01/10 05:55:20;;;;;;;;;;;;;;;-1.19;100.00;100128.50;5132872;27;19912;-77
2024/01/10 05:57:46;;;;;;;;;;;;;;;-1.28;100.00;100118.50;5131791;27;19911;-77
2024/01/10 06:00:12;;;;;;;;;;;;;;;-1.28;100.00;100120.41;5130304;27;19959;-77
2024/01/10 06:02:40;;;;;;;;;;;;;;;-1.34;100.00;100122.50;5121080;27;19915;-76
2024/01/10 06:05:06;;;;;;;;;;;;;;;-1.39;100.00;100121.88;5132291;27;20377;-77
2024/01/10 06:07:31;;;;;;;;;;;;;;;-1.46;100.00;100133.19;5133376;27;19954;-77
2024/01/10 06:09:57;;;;;;;;;;;;;;;-1.50;100.00;100126.81;5133572;27;20430;-77
2024/01/10 06:12:22;;;;;;;;;;;;;;;-1.49;100.00;100131.13;5131960;27;19911;-76
2024/01/10 06:14:47;;;;;;;;;;;;;;;-1.55;100.00;100137.03;5132040;27;20414;-77
2024/01/10 06:17:13;;;;;;;;;;;;;;;-1.53;100.00;100137.50;5132269;27;20334;-76
2024/01/10 06:19:39;;;;;;;;;;;;;;;-1.68;100.00;100133.38;5132639;27;19923;-78
2024/01/10 06:22:04;;;;;;;;;;;;;;;-1.68;100.00;100136.06;5123027;27;19916;-77
2024/01/10 06:24:30;;;;;;;;;;;;;;;-1.67;100.00;100146.59;5118142;27;19922;-77
2024/01/10 06:26:55;;;;;;;;;;;;;;;-1.73;100.00;100152.50;5127894;27;19918;-78
2024/01/10 06:29:20;;;;;;;;;;;;;;;-1.78;100.00;100149.94;5135005;27;19919;-78
2024/01/10 06:31:47;;;;;;;;;;;;;;;-1.83;100.00;100147.41;5122252;27;20316;-79
2024/01/10 06:34:12;;;;;;;;;;;;;;;-1.91;100.00;100149.00;5128731;27;19911;-77
2024/01/10 06:36:38;;;;;;;;;;;;;;;-1.89;100.00;100154.09;5130669;27;19922;-78
2024/01/10 06:39:04;;;;;;;;;;;;;;;-1.87;100.00;100152.66;5110742;28;19921;-78
2024/01/10 06:41:29;;;;;;;;;;;;;;;-1.89;100.00;100146.78;5102299;28;19919;-78
2024/01/10 06:43:54;;;;;;;;;;;;;;;-1.84;100.00;100148.53;5110648;28;20377;-78
2024/01/10 06:46:20;;;;;;;;;;;;;;;-1.79;100.00;100156.47;5110518;28;21215;-78
2024/01/10 06:48:46;;;;;;;;;;;;;;;-1.71;100.00;100159.19;5117689;28;19915;-78
2024/01/10 06:51:14;;;;;;;;;;;;;;;-1.61;100.00;100158.06;5117055;27;20331;-78
2024/01/10 06:53:40;;;;;;;;;;;;;;;-1.54;100.00;100160.31;5114864;27;19918;-79
2024/01/10 06:56:06;;;;;;;;;;;;;;;-1.49;100.00;100160.13;5120823;27;20001;-78
2024/01/10 06:58:31;;;;;;;;;;;;;;;-1.45;100.00;100161.09;5097286;28;20350;-77
2024/01/10 07:00:56;;;;;;;;;;;;;;;-1.39;100.00;100168.75;5107966;28;20431;-78
2024/01/10 07:03:22;;;;;;;;;;;;;;;-1.31;100.00;100169.84;5119264;27;19915;-78
2024/01/10 07:05:47;;;;;;;;;;;;;;;-1.21;100.00;100176.84;5135448;27;19949;-78
2024/01/10 07:08:14;;;;;;;;;;;;;;;-1.12;100.00;100169.47;5121539;27;19911;-77
2024/01/10 07:10:39;;;;;;;;;;;;;;;-1.07;100.00;100180.16;5135407;27;19994;-78
2024/01/10 07:13:04;;;;;;;;;;;;;;;-0.97;100.00;100183.34;5129268;27;19955;-77
2024/01/10 07:15:30;;;;;;;;;;;;;;;-0.89;100.00;100190.66;5118964;27;19912;-78
2024/01/10 07:17:55;;;;;;;;;;;;;;;-0.85;100.00;100191.59;5116254;27;19919;-77
2024/01/10 07:20:23;;;;;;;;;;;;;;;-0.79;100.00;100189.50;5135106;27;19950;-78
2024/01/10 07:22:49;;;;;;;;;;;;;;;-0.74;100.00;100199.38;5134816;27;19911;-77
2024/01/10 07:25:14;;;;;;;;;;;;;;;-0.70;100.00;100198.41;5126893;27;19912;-77
2024/01/10 07:27:40;;;;;;;;;;;;;;;-0.56;100.00;100200.91;5129509;27;20273;-80
2024/01/10 07:30:14;;;;;;;;;;;;;;;-0.48;99.26;100203.56;5134871;27;20342;-78
2024/01/10 07:32:43;;;;;;;;;;;;;;;-0.42;97.98;100205.00;5134538;27;19955;-78
2024/01/10 07:35:12;;;;;;;;;;;;;;;-0.43;96.73;100211.56;5135521;27;20368;-77
2024/01/10 07:37:41;;;;;;;;;;;;;;;-0.41;97.08;100208.50;5135167;27;20299;-77
2024/01/10 07:40:07;;;;;;;;;;;;;;;-0.39;96.07;100208.19;5134294;27;19914;-77
2024/01/10 07:42:33;;;;;;;;;;;;;;;-0.27;96.27;100211.81;5135178;27;20277;-78
2024/01/10 07:44:58;;;;;;;;;;;;;;;-0.17;95.84;100200.56;5134220;27;19912;-78
2024/01/10 07:47:24;;;;;;;;;;;;;;;-0.07;95.34;100210.25;5132850;27;19914;-77
2024/01/10 07:49:49;;;;;;;;;;;;;;;-0.15;95.44;100206.47;5131842;27;19930;-78
2024/01/10 07:52:16;;;;;;;;;;;;;;;-0.04;94.37;100212.31;5133112;27;19971;-78
2024/01/10 07:54:41;;;;;;;;;;;;;;;0.03;92.73;100218.03;5133256;27;20010;-77
2024/01/10 07:57:06;;;;;;;;;;;;;;;0.07;92.18;100216.22;5131790;27;20010;-79
2024/01/10 07:59:32;;;;;;;;;;;;;;;0.10;91.28;100215.59;5132925;27;19911;-78
2024/01/10 08:02:00;;;;;;;;;;;;;;;0.13;89.62;100222.25;5133396;27;19915;-78
2024/01/10 08:04:26;;;;;;;;;;;;;;;0.22;88.44;100229.25;5134573;27;20415;-78
2024/01/10 08:06:51;;;;;;;;;;;;;;;0.33;93.54;100216.88;5116625;27;19915;-78
2024/01/10 08:09:18;;;;;;;;;;;;;;;0.45;93.07;100218.06;5135204;27;19986;-78
2024/01/10 08:11:44;;;;;;;;;;;;;;;0.56;92.43;100222.75;5134732;27;19918;-79
2024/01/10 08:14:09;;;;;;;;;;;;;;;0.54;88.98;100219.59;5133354;27;19911;-78
2024/01/10 08:16:35;;;;;;;;;;;;;;;0.54;88.67;100233.19;5134334;27;19911;-77
2024/01/10 08:19:00;;;;;;;;;;;;;;;0.52;87.69;100224.56;5135002;27;19907;-77
2024/01/10 08:21:25;;;;;;;;;;;;;;;0.56;87.71;100233.63;5133333;27;19915;-77
2024/01/10 08:23:50;;;;;;;;;;;;;;;0.68;87.16;100230.19;5133893;27;19911;-78
2024/01/10 08:26:16;;;;;;;;;;;;;;;0.78;88.54;100227.06;5119030;27;20362;-78
2024/01/10 08:28:42;;;;;;;;;;;;;;;0.94;88.95;100230.75;5133416;27;19942;-79
2024/01/10 08:31:08;;;;;;;;;;;;;;;0.98;86.68;100239.03;5133217;27;19907;-78
2024/01/10 08:33:33;;;;;;;;;;;;;;;1.06;85.34;100233.50;5134200;27;19931;-79
2024/01/10 08:35:58;;;;;;;;;;;;;;;1.11;87.35;100232.50;5134554;27;20009;-78
2024/01/10 08:38:24;;;;;;;;;;;;;;;1.15;85.65;100234.22;5133386;27;19911;-78
2024/01/10 08:40:49;;;;;;;;;;;;;;;1.10;86.20;100239.06;5129251;27;20015;-78
2024/01/10 08:43:14;;;;;;;;;;;;;;;1.10;86.18;100226.25;5123498;27;19915;-80
2024/01/10 08:45:40;;;;;;;;;;;;;;;1.15;84.22;100230.69;5128872;27;19907;-79
2024/01/10 08:48:06;;;;;;;;;;;;;;;1.08;84.95;100239.44;5123159;27;19915;-79
2024/01/10 08:50:32;;;;;;;;;;;;;;;1.18;84.71;100238.19;5130282;27;19964;-78
2024/01/10 08:52:57;;;;;;;;;;;;;;;1.17;83.19;100236.59;5122752;27;19926;-78
2024/01/10 08:55:23;;;;;;;;;;;;;;;1.23;82.65;100236.06;5128999;27;19911;-78
2024/01/10 08:57:48;;;;;;;;;;;;;;;1.11;82.97;100229.78;5123937;27;19907;-78
2024/01/10 09:00:16;;;;;;;;;;;;;;;1.15;81.58;100233.41;5132215;27;19928;-77
2024/01/10 09:02:42;;;;;;;;;;;;;;;1.30;83.98;100227.34;5134309;27;19933;-78
2024/01/10 09:05:10;;;;;;;;;;;;;;;1.21;83.44;100226.63;5133830;27;20435;-77
2024/01/10 09:07:36;;;;;;;;;;;;;;;1.34;82.93;100222.00;5132590;27;19930;-79
2024/01/10 09:10:02;;;;;;;;;;;;;;;1.30;83.78;100218.38;5132315;27;19943;-79
2024/01/10 09:12:28;;;;;;;;;;;;;;;1.45;84.99;100214.97;5132153;27;20545;-78
2024/01/10 09:14:53;;;;;;;;;;;;;;;1.38;83.70;100212.84;5132068;27;19911;-77
2024/01/10 09:17:19;;;;;;;;;;;;;;;1.47;81.09;100218.97;5131245;27;20312;-77
2024/01/10 09:19:44;;;;;;;;;;;;;;;1.36;78.64;100217.81;5132575;27;19947;-78
2024/01/10 09:22:09;;;;;;;;;;;;;;;1.33;80.64;100217.69;5133841;27;19941;-79
2024/01/10 09:24:35;;;;;;;;;;;;;;;1.38;79.83;100217.50;5133353;27;19907;-77
2024/01/10 09:27:00;;;;;;;;;;;;;;;1.37;81.72;100213.19;5122224;27;20365;-78
2024/01/10 09:29:25;;;;;;;;;;;;;;;1.34;80.70;100219.28;5115292;27;19911;-77
2024/01/10 09:31:51;;;;;;;;;;;;;;;1.44;77.34;100214.22;5123733;27;20443;-79
2024/01/10 09:34:16;;;;;;;;;;;;;;;1.44;78.87;100214.22;5132343;27;19914;-78
2024/01/10 09:36:42;;;;;;;;;;;;;;;1.43;74.54;100214.53;5116880;27;19964;-77
2024/01/10 09:39:13;;;;;;;;;;;;;;;1.47;75.53;100207.28;5114044;28;19924;-78
2024/01/10 09:41:45;;;;;;;;;;;;;;;1.50;73.99;100220.22;5118926;28;20368;-78
2024/01/10 09:44:11;;;;;;;;;;;;;;;1.44;74.03;100214.22;5138847;27;19930;-77
2024/01/10 09:46:38;;;;;;;;;;;;;;;1.42;75.70;100213.75;5136802;27;20388;-78
2024/01/10 09:49:04;;;;;;;;;;;;;;;1.38;77.59;100207.41;5126956;27;19908;-78
2024/01/10 09:51:29;;;;;;;;;;;;;;;1.42;77.13;100205.59;5100294;28;19919;-82
2024/01/10 09:53:55;;;;;;;;;;;;;;;1.33;79.63;100202.16;5109757;28;20002;-81
2024/01/10 09:56:21;;;;;;;;;;;;;;;1.30;77.97;100204.75;5111581;28;19911;-80
2024/01/10 09:58:48;;;;;;;;;;;;;;;1.33;81.17;100193.97;5116449;27;19918;-80
2024/01/10 10:01:13;;;;;;;;;;;;;;;1.39;78.35;100194.56;5131628;27;19911;-79
2024/01/10 10:03:41;;;;;;;;;;;;;;;1.41;78.12;100187.66;5131329;27;19940;-79
2024/01/10 10:06:07;;;;;;;;;;;;;;;1.40;76.92;100185.25;5120377;27;20010;-79
2024/01/10 10:08:33;;;;;;;;;;;;;;;1.43;76.68;100184.59;5129833;27;19907;-79
2024/01/10 10:10:59;;;;;;;;;;;;;;;1.62;76.29;100182.91;5120048;27;19965;-79
2024/01/10 10:13:25;;;;;;;;;;;;;;;1.76;78.07;100179.03;5129603;27;19915;-80
2024/01/10 10:16:00;;;;;;;;;;;;;;;1.71;77.35;100177.34;5131795;27;19951;-79
2024/01/10 10:18:26;;;;;;;;;;;;;;;1.67;78.48;100172.91;5125157;27;20010;-78
2024/01/10 10:21:08;;;;;;;;;;;;;;;1.70;80.88;100170.28;5112204;28;20392;-80
2024/01/10 10:23:33;;;;;;;;;;;;;;;1.78;81.38;100174.84;5107774;27;19911;-79
2024/01/10 10:25:58;;;;;;;;;;;;;;;1.84;79.66;100164.50;5119134;27;20034;-78
2024/01/10 10:28:28;;;;;;;;;;;;;;;1.94;76.81;100158.56;5114473;27;20695;-79
2024/01/10 10:30:54;;;;;;;;;;;;;;;1.82;77.39;100151.22;5121351;27;19915;-78
2024/01/10 10:33:21;;;;;;;;;;;;;;;1.93;78.95;100146.88;5130540;27;19911;-78
2024/01/10 10:35:46;;;;;;;;;;;;;;;1.97;80.71;100147.00;5121864;27;19916;-79
2024/01/10 10:38:11;;;;;;;;;;;;;;;1.86;79.16;100137.72;5113713;27;19915;-80
2024/01/10 10:40:37;;;;;;;;;;;;;;;1.96;82.74;100137.22;5122111;27;19930;-81
2024/01/10 10:43:03;;;;;;;;;;;;;;;2.07;82.90;100132.88;5113531;28;19916;-78
2024/01/10 10:45:31;;;;;;;;;;;;;;;2.11;82.44;100122.88;5131108;27;19918;-79
2024/01/10 10:47:57;;;;;;;;;;;;;;;2.06;81.44;100117.66;5117627;27;19911;-79
2024/01/10 10:50:23;;;;;;;;;;;;;;;2.00;79.70;100122.56;5120956;27;19919;-80
2024/01/10 10:52:50;;;;;;;;;;;;;;;2.13;83.46;100117.88;5127443;27;19926;-80
2024/01/10 10:55:16;;;;;;;;;;;;;;;2.21;84.35;100107.97;5132120;27;19922;-81
2024/01/10 10:57:44;;;;;;;;;;;;;;;2.27;82.90;100110.13;5117098;27;19911;-79
2024/01/10 11:00:10;;;;;;;;;;;;;;;2.30;80.83;100111.34;5132372;27;19987;-79
2024/01/10 11:02:37;;;;;;;;;;;;;;;2.33;79.05;100102.47;5124536;27;19911;-79
2024/01/10 11:05:03;;;;;;;;;;;;;;;2.38;80.11;100094.03;5124002;27;19914;-81
2024/01/10 11:07:29;;;;;;;;;;;;;;;2.31;77.65;100094.63;5117525;27;19915;-80
2024/01/10 11:09:54;;;;;;;;;;;;;;;2.46;79.67;100090.38;5118072;27;20380;-79
2024/01/10 11:12:27;;;;;;;;;;;;;;;2.39;79.51;100085.53;5119599;27;20490;-80
2024/01/10 11:14:54;;;;;;;;;;;;;;;2.38;81.26;100078.47;5119718;27;19916;-79
2024/01/10 11:17:22;;;;;;;;;;;;;;;2.33;78.75;100073.28;5126618;27;19922;-80
2024/01/10 11:19:51;;;;;;;;;;;;;;;2.35;76.19;100076.44;5105321;28;19916;-79
2024/01/10 11:22:16;;;;;;;;;;;;;;;2.41;77.49;100066.09;5095923;28;19916;-79
2024/01/10 11:24:42;;;;;;;;;;;;;;;2.49;79.29;100062.41;5121974;28;19973;-78
2024/01/10 11:27:10;;;;;;;;;;;;;;;2.56;75.78;100061.78;5122311;28;19968;-79
2024/01/10 11:29:39;;;;;;;;;;;;;;;2.47;76.86;100060.00;5121996;27;19919;-79
2024/01/10 11:32:06;;;;;;;;;;;;;;;2.49;78.96;100045.22;5116038;27;19926;-80
2024/01/10 11:34:31;;;;;;;;;;;;;;;2.45;74.30;100054.13;5122851;28;20395;-79
2024/01/10 11:37:09;;;;;;;;;;;;;;;2.51;72.15;100046.47;5120867;28;19971;-80
2024/01/10 11:39:35;;;;;;;;;;;;;;;2.66;73.25;100029.31;5111279;27;19968;-79
2024/01/10 11:42:01;;;;;;;;;;;;;;;2.70;72.64;100041.13;5122375;27;19915;-79
2024/01/10 11:44:26;;;;;;;;;;;;;;;2.85;73.45;100025.91;5123361;27;19989;-79
2024/01/10 11:46:53;;;;;;;;;;;;;;;2.85;67.64;100034.09;5127535;27;20384;-79
2024/01/10 11:49:19;;;;;;;;;;;;;;;2.84;67.69;100019.66;5116664;27;19923;-80
2024/01/10 11:51:45;;;;;;;;;;;;;;;2.96;71.39;100017.97;5121965;27;19919;-81
2024/01/10 11:54:10;;;;;;;;;;;;;;;3.00;70.53;100016.13;5126528;27;20005;-80
2024/01/10 11:56:40;;;;;;;;;;;;;;;3.10;70.88;100010.13;5115627;27;20025;-79
2024/01/10 11:59:10;;;;;;;;;;;;;;;3.09;68.09;100009.34;5107025;27;19924;-80
2024/01/10 12:01:36;;;;;;;;;;;;;;;3.09;66.96;100000.34;5114938;27;19912;-80
2024/01/10 12:04:02;;;;;;;;;;;;;;;2.92;71.32;100015.16;5128615;27;19919;-79
2024/01/10 12:06:27;;;;;;;;;;;;;;;3.00;71.32;100011.47;5125847;27;19963;-79
2024/01/10 12:08:53;;;;;;;;;;;;;;;3.01;71.57;100012.25;5125219;27;19916;-80
2024/01/10 12:11:18;;;;;;;;;;;;;;;2.98;71.19;100002.03;5130049;27;19920;-79
2024/01/10 12:13:44;;;;;;;;;;;;;;;2.97;72.58;100006.69;5130820;27;19915;-79
2024/01/10 12:16:13;;;;;;;;;;;;;;;2.75;70.55;100004.59;5118873;27;19916;-79
2024/01/10 12:18:39;;;;;;;;;;;;;;;2.75;71.58;99999.16;5126865;27;20026;-80
2024/01/10 12:21:04;;;;;;;;;;;;;;;2.75;68.43;100002.66;5126781;27;20436;-79
2024/01/10 12:23:31;;;;;;;;;;;;;;;2.72;67.16;99995.16;5121968;27;19920;-79
2024/01/10 12:25:57;;;;;;;;;;;;;;;2.77;66.10;99988.69;5123793;27;20002;-79
2024/01/10 12:28:23;;;;;;;;;;;;;;;2.90;68.58;99984.69;5105816;28;20010;-79